M Y Odessa — ZCYV3 — position and weather

sailwx.info

Track history (hours):
 
Tides and Currents Weather Stations Pressure Air Temp Water Temp Dewpoint Dewpoint Depression Visibility Wind Speed Wind Dir Waves Ship Positions

M Y Odessa

Last reported at 2016-Feb-06 15:34 UTC. Time now 2016-Feb-10 00:46 UTC.
Position N 18°18' W 064°51'.

Length 48 m; draft 2.4 m.

Type: Pleasure craft. MMSI: 319010700.

Date/timePositionNaut miles runAvg speedWind from/ knotsBaromVisibWave heightAir tempDewpointWater temp
2016-Feb-06 15:34N 18°18' W 064°51'12 5.7
2016-Feb-06 13:32N 18°27' W 064°43'0 0.0
2016-Feb-06 12:32N 18°27' W 064°43'0 0.0
2016-Feb-06 11:26N 18°27' W 064°43'0 0.0
2016-Feb-06 10:32N 18°27' W 064°43'0 0.0
2016-Feb-06 09:32N 18°27' W 064°43'0 0.0
2016-Feb-06 08:32N 18°27' W 064°43'0 0.0
2016-Feb-06 07:32N 18°27' W 064°43'0 0.0
2016-Feb-06 06:32N 18°27' W 064°43'0 0.0
2016-Feb-06 05:32N 18°27' W 064°43'0 0.0
2016-Feb-06 04:32N 18°27' W 064°43'0 0.0
2016-Feb-06 03:32N 18°27' W 064°43'0 0.0
2016-Feb-06 02:32N 18°27' W 064°43'0 0.0
2016-Feb-06 01:32N 18°27' W 064°43'0 0.0
2016-Feb-06 00:32N 18°27' W 064°43'0 0.0
2016-Feb-05 23:32N 18°27' W 064°43'0 0.0
2016-Feb-05 22:32N 18°27' W 064°43'0 0.0
2016-Feb-05 21:32N 18°27' W 064°43'0 0.0
2016-Feb-05 20:26N 18°27' W 064°43'0 0.0
2016-Feb-05 19:32N 18°27' W 064°43'0 0.0
2016-Feb-05 18:32N 18°27' W 064°43'0 0.0
2016-Feb-05 17:32N 18°27' W 064°43'0 0.0
2016-Feb-05 16:32N 18°27' W 064°43'0 0.0
2016-Feb-05 15:32N 18°27' W 064°43'0 0.0
2016-Feb-05 14:32N 18°27' W 064°43'0 0.0
2016-Feb-05 13:32N 18°27' W 064°43'0 0.0
2016-Feb-05 12:33N 18°27' W 064°43'10 9.7
2016-Feb-05 11:34N 18°30' W 064°33'7 0.2
2016-Feb-03 14:29N 18°26' W 064°27'21 0.8
2016-Feb-02 11:29N 18°19' W 064°48'2 0.1
2016-Jan-31 20:33N 18°20' W 064°50'  
Track history (hours):
 
Tides and Currents Weather Stations Pressure Air Temp Water Temp Dewpoint Dewpoint Depression Visibility Wind Speed Wind Dir Waves Ship Positions

M Y Odessa

Last reported at 2016-Feb-06 15:34 UTC. Time now 2016-Feb-10 00:46 UTC.
Position N 18°18' W 064°51'.

Length 48 m; draft 2.4 m.

Type: Pleasure craft. MMSI: 319010700.

Date/timePositionNaut miles runAvg speedWind from/ knotsBaromVisibWave heightAir tempDewpointWater temp
2016-Feb-06 15:34N 18°18' W 064°51'12 5.7
2016-Feb-06 13:32N 18°27' W 064°43'0 0.0
2016-Feb-06 12:32N 18°27' W 064°43'0 0.0
2016-Feb-06 11:26N 18°27' W 064°43'0 0.0
2016-Feb-06 10:32N 18°27' W 064°43'0 0.0
2016-Feb-06 09:32N 18°27' W 064°43'0 0.0
2016-Feb-06 08:32N 18°27' W 064°43'0 0.0
2016-Feb-06 07:32N 18°27' W 064°43'0 0.0
2016-Feb-06 06:32N 18°27' W 064°43'0 0.0
2016-Feb-06 05:32N 18°27' W 064°43'0 0.0
2016-Feb-06 04:32N 18°27' W 064°43'0 0.0
2016-Feb-06 03:32N 18°27' W 064°43'0 0.0
2016-Feb-06 02:32N 18°27' W 064°43'0 0.0
2016-Feb-06 01:32N 18°27' W 064°43'0 0.0
2016-Feb-06 00:32N 18°27' W 064°43'0 0.0
2016-Feb-05 23:32N 18°27' W 064°43'0 0.0
2016-Feb-05 22:32N 18°27' W 064°43'0 0.0
2016-Feb-05 21:32N 18°27' W 064°43'0 0.0
2016-Feb-05 20:26N 18°27' W 064°43'0 0.0
2016-Feb-05 19:32N 18°27' W 064°43'0 0.0
2016-Feb-05 18:32N 18°27' W 064°43'0 0.0
2016-Feb-05 17:32N 18°27' W 064°43'0 0.0
2016-Feb-05 16:32N 18°27' W 064°43'0 0.0
2016-Feb-05 15:32N 18°27' W 064°43'0 0.0
2016-Feb-05 14:32N 18°27' W 064°43'0 0.0
2016-Feb-05 13:32N 18°27' W 064°43'0 0.0
2016-Feb-05 12:33N 18°27' W 064°43'10 9.7
2016-Feb-05 11:34N 18°30' W 064°33'7 0.2
2016-Feb-03 14:29N 18°26' W 064°27'21 0.8
2016-Feb-02 11:29N 18°19' W 064°48'2 0.1
2016-Jan-31 20:33N 18°20' W 064°50'  

Dump ship's entire track history